createdAt,value
2023-01-15T00:02:09.488Z,100.00
2023-01-15T00:04:36.350Z,100.00
2023-01-15T00:07:04.369Z,100.00
2023-01-15T00:09:31.339Z,100.00
2023-01-15T00:11:58.198Z,100.00
2023-01-15T00:14:25.051Z,100.00
2023-01-15T00:16:53.008Z,100.00
2023-01-15T00:19:19.942Z,100.00
2023-01-15T00:21:46.828Z,100.00
2023-01-15T00:24:32.099Z,100.00
2023-01-15T00:27:17.508Z,100.00
2023-01-15T00:29:44.647Z,100.00
2023-01-15T00:32:11.460Z,100.00
2023-01-15T00:34:38.387Z,100.00
2023-01-15T00:37:05.384Z,100.00
2023-01-15T00:39:33.336Z,100.00
2023-01-15T00:42:00.156Z,100.00
2023-01-15T00:44:27.056Z,100.00
2023-01-15T00:46:54.016Z,100.00
2023-01-15T00:49:21.347Z,100.00
2023-01-15T00:51:49.956Z,100.00
2023-01-15T00:54:17.438Z,100.00
2023-01-15T00:56:44.583Z,100.00
2023-01-15T00:59:11.929Z,100.00
2023-01-15T01:01:39.426Z,100.00
2023-01-15T01:04:06.546Z,100.00
2023-01-15T01:06:33.399Z,100.00
2023-01-15T01:09:00.358Z,100.00
2023-01-15T01:11:28.389Z,100.00
2023-01-15T01:13:55.745Z,100.00
2023-01-15T01:16:37.530Z,100.00
2023-01-15T01:19:20.379Z,100.00
2023-01-15T01:21:48.859Z,100.00
2023-01-15T01:24:22.476Z,100.00
2023-01-15T01:26:52.164Z,100.00
2023-01-15T01:29:22.713Z,100.00
2023-01-15T01:31:51.050Z,100.00
2023-01-15T01:34:18.050Z,100.00
2023-01-15T01:36:45.130Z,100.00
2023-01-15T01:39:17.974Z,100.00
2023-01-15T01:41:46.798Z,100.00
2023-01-15T01:44:32.320Z,100.00
2023-01-15T01:47:07.356Z,100.00
2023-01-15T01:49:36.509Z,100.00
2023-01-15T01:52:09.397Z,100.00
2023-01-15T01:54:38.427Z,100.00
2023-01-15T01:57:07.399Z,100.00
2023-01-15T01:59:35.090Z,100.00
2023-01-15T02:02:02.142Z,100.00
2023-01-15T02:04:29.823Z,100.00
2023-01-15T02:06:59.008Z,100.00
2023-01-15T02:09:25.855Z,100.00
2023-01-15T02:11:58.131Z,100.00
2023-01-15T02:15:04.663Z,100.00
2023-01-15T02:17:47.683Z,100.00
2023-01-15T02:20:44.268Z,100.00
2023-01-15T02:24:03.294Z,100.00
2023-01-15T02:27:02.519Z,100.00
2023-01-15T02:29:42.086Z,100.00
2023-01-15T02:32:16.287Z,100.00
2023-01-15T02:34:59.741Z,100.00
2023-01-15T02:37:30.663Z,100.00
2023-01-15T02:40:01.004Z,100.00
2023-01-15T02:42:30.517Z,100.00
2023-01-15T02:45:01.731Z,100.00
2023-01-15T02:47:35.325Z,100.00
2023-01-15T02:50:07.614Z,100.00
2023-01-15T02:53:05.569Z,100.00
2023-01-15T02:55:40.909Z,100.00
2023-01-15T02:58:14.954Z,99.68
2023-01-15T03:00:46.058Z,99.11
2023-01-15T03:03:26.899Z,98.89
2023-01-15T03:06:05.998Z,99.43
2023-01-15T03:08:33.082Z,99.09
2023-01-15T03:11:12.580Z,98.79
2023-01-15T03:13:49.771Z,98.33
2023-01-15T03:16:37.998Z,97.61
2023-01-15T03:19:34.639Z,98.20
2023-01-15T03:22:26.367Z,97.85
2023-01-15T03:25:07.370Z,97.00
2023-01-15T03:27:34.369Z,97.11
2023-01-15T03:30:13.384Z,97.31
2023-01-15T03:32:40.743Z,96.91
2023-01-15T03:35:46.843Z,97.53
2023-01-15T03:38:18.123Z,98.01
2023-01-15T03:41:07.458Z,97.94
2023-01-15T03:44:02.135Z,98.54
2023-01-15T03:47:01.775Z,98.81
2023-01-15T03:49:56.422Z,98.85
2023-01-15T03:53:07.598Z,98.54
2023-01-15T03:56:03.625Z,99.17
2023-01-15T03:58:46.216Z,99.58
2023-01-15T04:01:18.820Z,99.17
2023-01-15T04:03:48.600Z,99.70
2023-01-15T04:06:22.560Z,99.45
2023-01-15T04:08:49.583Z,99.78
2023-01-15T04:11:24.581Z,99.72
2023-01-15T04:13:52.273Z,99.27
2023-01-15T04:16:29.916Z,98.59
2023-01-15T04:18:57.073Z,98.18
2023-01-15T04:21:24.465Z,98.47
2023-01-15T04:23:51.695Z,98.85
2023-01-15T04:26:19.225Z,99.00
2023-01-15T04:28:46.134Z,98.68
2023-01-15T04:31:13.089Z,99.23
2023-01-15T04:33:40.063Z,99.01
2023-01-15T04:36:08.842Z,99.67
2023-01-15T04:38:38.316Z,100.00
2023-01-15T04:41:24.814Z,99.91
2023-01-15T04:44:06.789Z,100.00
2023-01-15T04:46:44.135Z,100.00
2023-01-15T04:49:15.218Z,100.00
2023-01-15T04:51:42.445Z,100.00
2023-01-15T04:54:12.195Z,100.00
2023-01-15T04:56:50.325Z,100.00
2023-01-15T04:59:20.468Z,100.00
2023-01-15T05:02:01.759Z,100.00
2023-01-15T05:04:29.741Z,100.00
2023-01-15T05:06:56.653Z,100.00
2023-01-15T05:09:23.577Z,100.00
2023-01-15T05:11:50.379Z,100.00
2023-01-15T05:14:17.175Z,100.00
2023-01-15T05:16:44.348Z,100.00
2023-01-15T05:19:11.308Z,100.00
2023-01-15T05:21:42.615Z,100.00
2023-01-15T05:24:17.109Z,100.00
2023-01-15T05:26:44.675Z,100.00
2023-01-15T05:29:12.788Z,100.00
2023-01-15T05:31:41.724Z,100.00
2023-01-15T05:34:09.890Z,100.00
2023-01-15T05:36:37.557Z,100.00
2023-01-15T05:39:04.969Z,100.00
2023-01-15T05:41:50.189Z,100.00
2023-01-15T05:44:25.245Z,100.00
2023-01-15T05:46:57.924Z,100.00
2023-01-15T05:49:27.621Z,100.00
2023-01-15T05:51:55.183Z,100.00
2023-01-15T05:54:26.193Z,100.00
2023-01-15T05:56:54.094Z,100.00
2023-01-15T05:59:24.591Z,100.00
2023-01-15T06:01:52.482Z,100.00
2023-01-15T06:04:21.359Z,100.00
2023-01-15T06:06:50.183Z,100.00
2023-01-15T06:09:18.244Z,100.00
2023-01-15T06:11:47.194Z,100.00
2023-01-15T06:14:14.465Z,100.00
2023-01-15T06:16:41.835Z,100.00
2023-01-15T06:19:11.086Z,100.00
2023-01-15T06:21:38.161Z,100.00
2023-01-15T06:24:12.550Z,100.00
2023-01-15T06:26:40.382Z,100.00
2023-01-15T06:29:07.207Z,100.00
2023-01-15T06:31:34.098Z,100.00
2023-01-15T06:34:00.950Z,100.00
2023-01-15T06:36:28.616Z,100.00
2023-01-15T06:38:55.926Z,100.00
2023-01-15T06:41:44.673Z,100.00
2023-01-15T06:44:33.503Z,100.00
2023-01-15T06:47:21.329Z,100.00
2023-01-15T06:49:54.425Z,100.00
2023-01-15T06:52:22.852Z,100.00
2023-01-15T06:54:49.772Z,100.00
2023-01-15T06:57:18.685Z,100.00
2023-01-15T06:59:47.446Z,100.00
2023-01-15T07:02:14.236Z,100.00
2023-01-15T07:04:41.077Z,100.00
2023-01-15T07:07:07.955Z,100.00
2023-01-15T07:09:34.848Z,100.00
2023-01-15T07:12:01.682Z,98.68
2023-01-15T07:14:28.629Z,97.39
2023-01-15T07:16:56.088Z,96.65
2023-01-15T07:19:22.964Z,96.03
2023-01-15T07:21:49.911Z,95.84
2023-01-15T07:24:17.638Z,96.71
2023-01-15T07:26:45.629Z,97.34
2023-01-15T07:29:13.408Z,97.75
2023-01-15T07:31:41.374Z,97.56
2023-01-15T07:34:08.860Z,99.17
2023-01-15T07:36:36.260Z,99.31
2023-01-15T07:39:08.684Z,98.76
2023-01-15T07:41:54.383Z,97.60
2023-01-15T07:44:40.968Z,97.33
2023-01-15T07:47:42.199Z,96.61
2023-01-15T07:50:17.851Z,97.47
2023-01-15T07:52:44.737Z,97.08
2023-01-15T07:55:14.817Z,97.60
2023-01-15T07:57:43.471Z,95.78
2023-01-15T08:00:19.804Z,95.84
2023-01-15T08:02:49.639Z,95.28
2023-01-15T08:05:17.108Z,95.07
2023-01-15T08:07:45.283Z,94.78
2023-01-15T08:10:13.939Z,95.05
2023-01-15T08:12:59.721Z,95.63
2023-01-15T08:15:27.206Z,95.71
2023-01-15T08:17:54.110Z,94.92
2023-01-15T08:20:25.418Z,95.75
2023-01-15T08:22:52.725Z,94.69
2023-01-15T08:25:23.911Z,94.67
2023-01-15T08:27:52.101Z,95.61
2023-01-15T08:30:25.019Z,94.56
2023-01-15T08:32:52.336Z,93.65
2023-01-15T08:35:19.252Z,92.83
2023-01-15T08:37:46.059Z,93.33
2023-01-15T08:40:13.056Z,93.78
2023-01-15T08:42:40.698Z,93.46
2023-01-15T08:45:08.588Z,94.04
2023-01-15T08:47:37.163Z,93.17
2023-01-15T08:50:06.335Z,93.92
2023-01-15T08:52:33.184Z,93.81
2023-01-15T08:55:00.014Z,94.20
2023-01-15T08:57:26.842Z,94.84
2023-01-15T08:59:53.632Z,95.63
2023-01-15T09:02:20.428Z,93.84
2023-01-15T09:04:47.324Z,93.16
2023-01-15T09:07:14.301Z,93.12
2023-01-15T09:09:41.144Z,92.74
2023-01-15T09:12:08.857Z,92.98
2023-01-15T09:14:56.565Z,91.86
2023-01-15T09:17:22.720Z,92.33
2023-01-15T09:19:49.821Z,91.91
2023-01-15T09:22:16.628Z,91.52
2023-01-15T09:24:43.513Z,91.88
2023-01-15T09:27:13.379Z,90.55
2023-01-15T09:29:40.154Z,91.15
2023-01-15T09:32:08.244Z,91.22
2023-01-15T09:34:35.124Z,90.56
2023-01-15T09:37:02.050Z,87.54
2023-01-15T09:39:28.866Z,87.46
2023-01-15T09:42:24.418Z,87.58
2023-01-15T09:45:12.388Z,87.77
2023-01-15T09:48:33.964Z,88.10
2023-01-15T09:51:30.453Z,86.43
2023-01-15T09:55:00.381Z,85.16
2023-01-15T09:57:28.751Z,85.19
2023-01-15T10:00:03.940Z,85.26
2023-01-15T10:03:04.569Z,84.58
2023-01-15T10:05:44.541Z,83.77
2023-01-15T10:08:15.667Z,83.90
2023-01-15T10:11:07.406Z,84.44
2023-01-15T10:13:53.155Z,84.24
2023-01-15T10:16:23.757Z,83.61
2023-01-15T10:18:51.906Z,85.51
2023-01-15T10:21:54.369Z,87.08
2023-01-15T10:24:40.447Z,89.61
2023-01-15T10:27:22.422Z,90.74
2023-01-15T10:30:05.709Z,91.41
2023-01-15T10:33:02.363Z,91.98
2023-01-15T10:35:48.134Z,91.00
2023-01-15T10:38:57.774Z,91.23
2023-01-15T10:42:07.631Z,90.70
2023-01-15T10:45:03.549Z,91.27
2023-01-15T10:47:36.121Z,91.01
2023-01-15T10:50:25.226Z,90.27
2023-01-15T10:53:27.955Z,90.12
2023-01-15T10:56:29.450Z,90.98
2023-01-15T10:59:15.581Z,90.86
2023-01-15T11:01:42.625Z,91.31
2023-01-15T11:04:13.835Z,92.48
2023-01-15T11:06:41.827Z,92.99
2023-01-15T11:09:23.564Z,92.71
2023-01-15T11:12:19.508Z,91.73
2023-01-15T11:15:05.413Z,91.68
2023-01-15T11:18:11.311Z,91.86
2023-01-15T11:20:46.815Z,92.22
2023-01-15T11:23:20.813Z,91.93
2023-01-15T11:25:59.203Z,91.13
2023-01-15T11:28:40.600Z,92.20
2023-01-15T11:31:09.282Z,91.78
2023-01-15T11:33:37.166Z,91.06
2023-01-15T11:36:22.070Z,91.29
2023-01-15T11:38:50.902Z,91.33
2023-01-15T11:41:52.759Z,91.19
2023-01-15T11:44:41.633Z,90.07
2023-01-15T11:47:32.275Z,90.23
2023-01-15T11:50:17.799Z,90.72
2023-01-15T11:52:55.022Z,91.32
2023-01-15T11:55:26.429Z,90.73
2023-01-15T11:57:54.202Z,91.15
2023-01-15T12:00:42.678Z,91.41
2023-01-15T12:03:19.985Z,92.80
2023-01-15T12:05:55.624Z,92.34
2023-01-15T12:08:27.859Z,91.81
2023-01-15T12:11:35.951Z,89.72
2023-01-15T12:14:15.806Z,89.78
2023-01-15T12:17:13.811Z,90.69
2023-01-15T12:20:17.178Z,89.38
2023-01-15T12:23:04.718Z,89.35
2023-01-15T12:26:02.378Z,90.98
2023-01-15T12:28:38.053Z,90.47
2023-01-15T12:31:20.856Z,90.46
2023-01-15T12:33:57.675Z,94.03
2023-01-15T12:36:57.672Z,91.11
2023-01-15T12:39:35.229Z,90.86
2023-01-15T12:42:26.083Z,91.06
2023-01-15T12:45:04.904Z,91.66
2023-01-15T12:47:52.332Z,91.62
2023-01-15T12:50:47.526Z,92.98
2023-01-15T12:53:31.978Z,92.21
2023-01-15T12:56:09.628Z,91.46
2023-01-15T12:58:54.553Z,91.78
2023-01-15T13:01:50.966Z,90.69
2023-01-15T13:04:54.257Z,88.97
2023-01-15T13:07:27.554Z,88.60
2023-01-15T13:10:15.902Z,88.17
2023-01-15T13:12:42.715Z,88.09
2023-01-15T13:15:18.154Z,84.69
2023-01-15T13:18:17.052Z,83.99
2023-01-15T13:20:55.305Z,83.11
2023-01-15T13:23:30.875Z,83.29
2023-01-15T13:26:27.778Z,84.34
2023-01-15T13:29:27.894Z,81.42
2023-01-15T13:32:06.390Z,80.71
2023-01-15T13:34:52.161Z,80.43
2023-01-15T13:37:33.427Z,80.48
2023-01-15T13:40:21.648Z,80.44
2023-01-15T13:42:49.967Z,78.68
2023-01-15T13:45:16.699Z,80.15
2023-01-15T13:47:52.662Z,80.24
2023-01-15T13:50:53.897Z,78.41
2023-01-15T13:53:36.568Z,76.75
2023-01-15T13:56:24.827Z,76.58
2023-01-15T13:58:58.670Z,75.28
2023-01-15T14:01:31.588Z,75.02
2023-01-15T14:04:09.879Z,74.73
2023-01-15T14:06:40.076Z,75.42
2023-01-15T14:09:13.827Z,74.77
2023-01-15T14:12:07.682Z,75.03
2023-01-15T14:15:41.229Z,74.87
2023-01-15T14:18:28.181Z,75.76
2023-01-15T14:21:06.745Z,75.78
2023-01-15T14:24:07.388Z,75.51
2023-01-15T14:26:46.398Z,74.71
2023-01-15T14:29:51.373Z,75.07
2023-01-15T14:32:23.684Z,75.29
2023-01-15T14:35:00.489Z,75.39
2023-01-15T14:37:45.330Z,73.03
2023-01-15T14:40:26.102Z,74.01
2023-01-15T14:43:02.769Z,74.56
2023-01-15T14:45:42.254Z,74.59
2023-01-15T14:48:28.125Z,75.19
2023-01-15T14:51:11.182Z,76.08
2023-01-15T14:54:02.305Z,75.15
2023-01-15T14:56:36.295Z,75.42
2023-01-15T14:59:26.381Z,74.88
2023-01-15T15:01:59.082Z,75.37
2023-01-15T15:04:37.529Z,75.91
2023-01-15T15:07:17.889Z,75.13
2023-01-15T15:09:53.407Z,75.79
2023-01-15T15:12:54.846Z,75.13
2023-01-15T15:15:27.605Z,75.40
2023-01-15T15:18:16.319Z,75.99
2023-01-15T15:20:58.746Z,76.05
2023-01-15T15:24:18.819Z,76.05
2023-01-15T15:26:45.859Z,75.31
2023-01-15T15:29:16.319Z,76.28
2023-01-15T15:31:57.394Z,75.89
2023-01-15T15:34:35.245Z,76.47
2023-01-15T15:37:14.076Z,77.06
2023-01-15T15:39:42.539Z,77.14
2023-01-15T15:42:52.997Z,78.48
2023-01-15T15:45:48.190Z,78.08
2023-01-15T15:48:42.909Z,77.93
2023-01-15T15:51:39.958Z,78.92
2023-01-15T15:54:28.222Z,79.86
2023-01-15T15:57:07.095Z,80.90
2023-01-15T15:59:38.048Z,80.40
2023-01-15T16:02:30.867Z,80.31
2023-01-15T16:05:15.863Z,81.11
2023-01-15T16:07:42.726Z,81.68
2023-01-15T16:10:24.396Z,82.22
2023-01-15T16:12:54.910Z,82.38
2023-01-15T16:15:38.867Z,83.57
2023-01-15T16:18:17.141Z,82.95
2023-01-15T16:20:44.078Z,83.44
2023-01-15T16:23:29.581Z,83.20
2023-01-15T16:26:14.341Z,82.42
2023-01-15T16:28:49.239Z,82.38
2023-01-15T16:31:18.283Z,83.55
2023-01-15T16:33:46.453Z,81.77
2023-01-15T16:36:13.406Z,82.43
2023-01-15T16:38:42.641Z,81.31
2023-01-15T16:41:32.142Z,81.73
2023-01-15T16:44:02.797Z,81.99
2023-01-15T16:46:38.626Z,81.83
2023-01-15T16:49:26.482Z,80.60
2023-01-15T16:51:57.183Z,80.69
2023-01-15T16:54:30.099Z,81.47
2023-01-15T16:57:02.725Z,80.97
2023-01-15T16:59:30.201Z,81.35
2023-01-15T17:02:14.027Z,79.68
2023-01-15T17:04:45.992Z,80.58
2023-01-15T17:07:37.160Z,81.18
2023-01-15T17:10:17.749Z,80.22
2023-01-15T17:12:44.771Z,78.97
2023-01-15T17:15:14.279Z,79.21
2023-01-15T17:17:45.956Z,79.13
2023-01-15T17:20:14.432Z,79.26
2023-01-15T17:22:44.904Z,78.18
2023-01-15T17:25:34.908Z,79.32
2023-01-15T17:28:03.735Z,79.23
2023-01-15T17:30:32.086Z,79.40
2023-01-15T17:33:05.000Z,79.26
2023-01-15T17:35:35.350Z,79.20
2023-01-15T17:38:03.014Z,79.81
2023-01-15T17:40:29.891Z,78.86
2023-01-15T17:42:59.103Z,79.93
2023-01-15T17:45:32.005Z,80.27
2023-01-15T17:47:59.525Z,80.23
2023-01-15T17:50:26.608Z,79.63
2023-01-15T17:52:53.395Z,79.45
2023-01-15T17:55:41.655Z,78.91
2023-01-15T17:58:31.683Z,79.67
2023-01-15T18:01:17.225Z,78.58
2023-01-15T18:04:08.621Z,79.36
2023-01-15T18:06:35.726Z,78.37
2023-01-15T18:09:05.841Z,79.54
2023-01-15T18:11:33.136Z,79.26
2023-01-15T18:14:00.069Z,78.96
2023-01-15T18:16:29.605Z,79.25
2023-01-15T18:18:56.533Z,78.69
2023-01-15T18:21:23.710Z,78.97
2023-01-15T18:23:50.620Z,78.81
2023-01-15T18:26:17.406Z,78.72
2023-01-15T18:28:46.336Z,79.06
2023-01-15T18:31:13.797Z,79.70
2023-01-15T18:33:40.673Z,79.97
2023-01-15T18:36:11.679Z,79.82
2023-01-15T18:38:43.667Z,79.78
2023-01-15T18:41:33.920Z,80.07
2023-01-15T18:44:24.273Z,79.60
2023-01-15T18:46:56.278Z,79.26
2023-01-15T18:49:23.339Z,78.79
2023-01-15T18:52:08.903Z,78.76
2023-01-15T18:54:36.236Z,79.13
2023-01-15T18:57:03.757Z,78.38
2023-01-15T18:59:31.146Z,79.74
2023-01-15T19:01:58.861Z,79.14
2023-01-15T19:04:26.489Z,79.12
2023-01-15T19:06:53.825Z,79.76
2023-01-15T19:09:23.964Z,79.82
2023-01-15T19:11:52.480Z,80.00
2023-01-15T19:14:39.208Z,80.50
2023-01-15T19:17:25.137Z,81.06
2023-01-15T19:19:51.981Z,81.23
2023-01-15T19:22:37.498Z,80.87
2023-01-15T19:25:05.254Z,81.30
2023-01-15T19:27:32.087Z,81.97
2023-01-15T19:30:00.312Z,81.57
2023-01-15T19:32:27.151Z,82.55
2023-01-15T19:34:54.161Z,82.45
2023-01-15T19:37:22.031Z,82.30
2023-01-15T19:39:48.877Z,82.47
2023-01-15T19:42:34.007Z,82.11
2023-01-15T19:45:19.231Z,82.58
2023-01-15T19:48:04.622Z,82.31
2023-01-15T19:50:41.440Z,83.26
2023-01-15T19:53:09.651Z,83.11
2023-01-15T19:55:40.171Z,83.39
2023-01-15T19:58:12.832Z,83.14
2023-01-15T20:00:43.042Z,83.65
2023-01-15T20:03:12.077Z,82.30
2023-01-15T20:05:42.021Z,83.01
2023-01-15T20:08:13.614Z,82.73
2023-01-15T20:10:43.557Z,81.93
2023-01-15T20:13:47.075Z,82.09
2023-01-15T20:16:19.540Z,82.11
2023-01-15T20:18:49.898Z,82.08
2023-01-15T20:21:16.932Z,82.02
2023-01-15T20:23:44.761Z,82.48
2023-01-15T20:26:14.086Z,82.55
2023-01-15T20:28:42.435Z,82.58
2023-01-15T20:31:20.108Z,83.30
2023-01-15T20:33:47.703Z,83.22
2023-01-15T20:36:15.017Z,81.48
2023-01-15T20:38:41.853Z,81.06
2023-01-15T20:41:39.996Z,81.91
2023-01-15T20:44:25.496Z,81.75
2023-01-15T20:46:52.340Z,82.74
2023-01-15T20:49:26.836Z,82.61
2023-01-15T20:51:55.359Z,83.00
2023-01-15T20:54:24.240Z,82.69
2023-01-15T20:56:51.577Z,82.81
2023-01-15T20:59:18.517Z,82.99
2023-01-15T21:01:45.532Z,82.54
2023-01-15T21:04:13.622Z,82.96
2023-01-15T21:06:40.855Z,82.94
2023-01-15T21:09:07.776Z,82.82
2023-01-15T21:11:34.732Z,82.83
2023-01-15T21:14:01.636Z,82.72
2023-01-15T21:16:28.518Z,82.83
2023-01-15T21:18:55.515Z,83.16
2023-01-15T21:21:22.743Z,83.49
2023-01-15T21:23:50.376Z,84.02
2023-01-15T21:26:17.351Z,83.28
2023-01-15T21:28:44.793Z,83.75
2023-01-15T21:31:14.148Z,83.83
2023-01-15T21:33:41.346Z,83.59
2023-01-15T21:36:11.646Z,84.28
2023-01-15T21:38:40.165Z,84.11
2023-01-15T21:41:15.032Z,84.53
2023-01-15T21:44:01.972Z,83.86
2023-01-15T21:46:29.291Z,84.12
2023-01-15T21:48:58.274Z,84.32
2023-01-15T21:51:26.718Z,84.61
2023-01-15T21:53:54.195Z,84.02
2023-01-15T21:56:21.138Z,84.75
2023-01-15T21:58:47.967Z,84.77
2023-01-15T22:01:18.044Z,85.18
2023-01-15T22:03:45.839Z,84.97
2023-01-15T22:06:12.822Z,84.93
2023-01-15T22:08:39.674Z,85.59
2023-01-15T22:11:09.766Z,85.33
2023-01-15T22:13:37.844Z,85.10
2023-01-15T22:16:04.943Z,85.33
2023-01-15T22:18:33.634Z,85.30
2023-01-15T22:21:06.446Z,85.46
2023-01-15T22:23:34.587Z,84.39
2023-01-15T22:26:01.585Z,85.52
2023-01-15T22:28:28.413Z,84.76
2023-01-15T22:30:55.257Z,85.15
2023-01-15T22:33:22.715Z,85.35
2023-01-15T22:35:59.909Z,85.08
2023-01-15T22:38:27.268Z,84.01
2023-01-15T22:40:54.236Z,84.28
2023-01-15T22:43:21.207Z,84.73
2023-01-15T22:45:48.048Z,84.63
2023-01-15T22:48:14.972Z,84.34
2023-01-15T22:50:41.828Z,84.27
2023-01-15T22:53:08.779Z,83.91
2023-01-15T22:55:36.423Z,84.03
2023-01-15T22:58:03.360Z,84.00
2023-01-15T23:00:30.221Z,83.38
2023-01-15T23:03:05.000Z,84.21
2023-01-15T23:05:37.147Z,83.70
2023-01-15T23:08:04.030Z,82.89
2023-01-15T23:10:30.873Z,82.51
2023-01-15T23:12:57.978Z,82.83
2023-01-15T23:15:24.873Z,82.75
2023-01-15T23:17:51.782Z,82.70
2023-01-15T23:20:18.703Z,82.48
2023-01-15T23:22:45.512Z,82.80
2023-01-15T23:25:12.392Z,82.84
2023-01-15T23:27:39.210Z,82.63
2023-01-15T23:30:06.753Z,83.21
2023-01-15T23:32:33.621Z,82.99
2023-01-15T23:35:00.494Z,83.14
2023-01-15T23:37:27.407Z,82.80
2023-01-15T23:39:54.241Z,83.64
2023-01-15T23:42:40.021Z,83.50
2023-01-15T23:45:26.161Z,83.01
2023-01-15T23:47:53.020Z,82.99
2023-01-15T23:50:19.899Z,83.69
2023-01-15T23:52:46.741Z,83.95
2023-01-15T23:55:13.624Z,83.52
2023-01-15T23:57:40.568Z,83.16
